createdAt,value
2023-05-12T00:01:49.411Z,2.72
2023-05-12T00:11:51.424Z,3.22
2023-05-12T00:21:54.685Z,3.35
2023-05-12T00:31:56.716Z,2.95
2023-05-12T00:42:00.118Z,4.15
2023-05-12T00:52:03.197Z,3.88
2023-05-12T01:02:06.954Z,3.35
2023-05-12T01:12:09.016Z,2.90
2023-05-12T01:22:13.122Z,3.72
2023-05-12T01:32:16.723Z,3.70
2023-05-12T01:42:18.704Z,3.80
2023-05-12T01:52:21.996Z,5.05
2023-05-12T02:02:24.007Z,10.32
2023-05-12T02:12:27.517Z,10.98
2023-05-12T02:22:29.465Z,15.35
2023-05-12T02:32:32.804Z,20.90
2023-05-12T02:42:34.772Z,23.25
2023-05-12T02:52:39.321Z,24.48
2023-05-12T03:02:41.781Z,22.95
2023-05-12T03:12:45.195Z,19.35
2023-05-12T03:22:47.166Z,15.38
2023-05-12T03:32:50.487Z,16.20
2023-05-12T03:42:52.516Z,16.55
2023-05-12T03:52:56.135Z,15.43
2023-05-12T04:02:58.354Z,16.50
2023-05-12T04:13:01.722Z,17.48
2023-05-12T04:23:04.019Z,17.92
2023-05-12T04:33:07.359Z,15.05
2023-05-12T04:43:09.334Z,16.83
2023-05-12T04:53:12.752Z,11.38
2023-05-12T05:03:14.919Z,9.32
2023-05-12T05:13:18.297Z,8.07
2023-05-12T05:23:20.279Z,11.60
2023-05-12T05:33:23.759Z,9.98
2023-05-12T05:43:25.741Z,11.15
2023-05-12T05:53:29.181Z,10.40
2023-05-12T06:03:31.252Z,11.77
2023-05-12T06:13:34.655Z,11.75
2023-05-12T06:23:36.684Z,11.65
2023-05-12T06:33:40.166Z,12.25
2023-05-12T06:43:42.102Z,10.45
2023-05-12T06:53:45.396Z,9.48
2023-05-12T07:03:47.354Z,9.65
2023-05-12T07:13:51.804Z,7.22
2023-05-12T07:23:53.825Z,5.90
2023-05-12T07:33:57.124Z,5.70
2023-05-12T07:43:59.030Z,4.30
2023-05-12T07:54:02.386Z,4.63
2023-05-12T08:04:04.593Z,3.83
2023-05-12T08:14:08.529Z,3.88
2023-05-12T08:24:10.490Z,2.15
2023-05-12T08:34:14.442Z,2.13
2023-05-12T08:44:18.645Z,2.05
2023-05-12T08:54:23.886Z,2.03
2023-05-12T09:04:25.875Z,1.70
2023-05-12T09:14:34.556Z,2.03
2023-05-12T09:24:37.125Z,2.00
2023-05-12T09:34:40.473Z,1.80
2023-05-12T09:44:42.428Z,1.52
2023-05-12T09:54:47.445Z,1.70
2023-05-12T10:04:52.805Z,1.83
2023-05-12T10:14:57.991Z,1.92
2023-05-12T10:25:01.510Z,2.42
2023-05-12T10:35:12.125Z,1.90
2023-05-12T10:45:18.763Z,1.55
2023-05-12T10:55:31.497Z,2.80
2023-05-12T11:05:34.967Z,1.63
2023-05-12T11:15:38.769Z,2.50
2023-05-12T11:25:44.460Z,2.00
2023-05-12T11:35:48.125Z,1.58
2023-05-12T11:45:50.140Z,1.67
2023-05-12T11:55:55.413Z,1.23
2023-05-12T12:05:58.992Z,1.50
2023-05-12T12:16:02.590Z,1.80
2023-05-12T12:26:04.659Z,1.90
2023-05-12T12:36:08.662Z,2.22
2023-05-12T12:46:10.769Z,1.80
2023-05-12T12:56:14.106Z,3.53
2023-05-12T13:06:16.103Z,3.50
2023-05-12T13:16:19.444Z,4.47
2023-05-12T13:26:21.471Z,3.88
2023-05-12T13:36:24.960Z,3.55
2023-05-12T13:46:26.993Z,3.40
2023-05-12T13:56:30.359Z,4.30
2023-05-12T14:06:32.326Z,7.20
2023-05-12T14:16:35.775Z,5.70
2023-05-12T14:26:37.694Z,7.40
2023-05-12T14:36:40.994Z,9.00
2023-05-12T14:46:42.911Z,8.57
2023-05-12T14:56:46.218Z,9.13
2023-05-12T15:06:48.167Z,10.35
2023-05-12T15:16:51.808Z,11.18
2023-05-12T15:26:53.810Z,9.43
2023-05-12T15:36:57.108Z,9.85
2023-05-12T15:46:59.101Z,11.25
2023-05-12T15:57:02.566Z,10.63
2023-05-12T16:07:04.932Z,11.05
2023-05-12T16:17:08.273Z,15.00
2023-05-12T16:27:10.364Z,10.70
2023-05-12T16:37:13.651Z,12.05
2023-05-12T16:47:15.621Z,11.95
2023-05-12T16:57:18.957Z,10.75
2023-05-12T17:07:27.312Z,12.05
2023-05-12T17:17:30.698Z,11.02
2023-05-12T17:27:32.707Z,13.75
2023-05-12T17:37:36.513Z,10.30
2023-05-12T17:47:38.540Z,14.23
2023-05-12T17:58:20.811Z,12.52
2023-05-12T18:08:24.135Z,13.10
2023-05-12T18:18:26.202Z,12.48
2023-05-12T18:28:29.729Z,12.20
2023-05-12T18:38:31.637Z,13.68
2023-05-12T18:48:34.950Z,12.77
2023-05-12T18:58:36.885Z,12.77
2023-05-12T19:08:40.174Z,12.90
2023-05-12T19:18:42.197Z,11.27
2023-05-12T19:28:45.577Z,13.10
2023-05-12T19:38:47.509Z,12.02
2023-05-12T19:48:50.998Z,11.35
2023-05-12T19:58:53.018Z,11.45
2023-05-12T20:08:56.352Z,12.88
2023-05-12T20:18:59.161Z,12.55
2023-05-12T20:29:03.920Z,10.90
2023-05-12T20:39:05.874Z,11.77
2023-05-12T20:49:09.181Z,12.05
2023-05-12T20:59:11.077Z,13.45
2023-05-12T21:09:14.421Z,10.82
2023-05-12T21:19:16.362Z,13.43
2023-05-12T21:29:19.683Z,13.18
2023-05-12T21:39:21.745Z,14.57
2023-05-12T21:49:25.194Z,11.60
2023-05-12T21:59:27.248Z,9.75
2023-05-12T22:09:31.249Z,11.63
2023-05-12T22:19:58.215Z,12.02
2023-05-12T22:30:01.577Z,10.30
2023-05-12T22:40:03.670Z,10.02
2023-05-12T22:50:07.806Z,9.70
2023-05-12T23:00:10.567Z,10.68
2023-05-12T23:10:14.003Z,10.18
2023-05-12T23:20:15.933Z,10.02
2023-05-12T23:30:19.397Z,9.68
2023-05-12T23:40:21.634Z,10.02
2023-05-12T23:50:25.345Z,9.85
